Time;durP1;ratioP1;P1;durP2;ratioP2;P2;SDS_P1;SDS_P2;PMS_P1;PMS_P2;Temp;Humidity;BMP_temperature;BMP_pressure;BME280_temperature;BME280_humidity;BME280_pressure;Samples;Min_cycle;Max_cycle;Signal;HPM_P1;HPM_P2
2022/05/29 00:00:22;;;;;;;3.15;0.95;;;12.30;90.10;;;12.40;60.09;101080.81;5179292;28;20555;-69
2022/05/29 00:02:54;;;;;;;3.13;1.00;;;12.30;90.30;;;12.36;60.45;101080.66;5192004;28;20057;-71
2022/05/29 00:05:26;;;;;;;2.15;1.23;;;12.20;90.60;;;12.36;60.55;101078.06;5192001;28;20053;-69
2022/05/29 00:07:58;;;;;;;2.38;0.80;;;12.20;90.80;;;12.33;60.78;101077.97;5192400;28;20406;-70
2022/05/29 00:10:31;;;;;;;1.05;0.93;;;12.20;91.10;;;12.30;60.46;101080.47;5191686;28;20046;-69
2022/05/29 00:13:03;;;;;;;2.50;1.38;;;12.10;91.20;;;12.26;60.59;101076.88;5191843;28;20042;-68
2022/05/29 00:15:36;;;;;;;3.33;1.05;;;12.10;91.70;;;12.26;60.91;101087.34;5192077;28;20107;-70
2022/05/29 00:18:09;;;;;;;2.45;0.90;;;12.10;91.80;;;12.27;60.95;101080.38;5191884;28;20060;-68
2022/05/29 00:20:41;;;;;;;4.13;1.17;;;12.10;92.00;;;12.23;61.18;101077.66;5191846;28;20050;-68
2022/05/29 00:23:13;;;;;;;2.65;0.93;;;12.10;92.20;;;12.21;61.20;101074.13;5192283;28;20394;-70
2022/05/29 00:25:50;;;;;;;1.45;0.77;;;12.10;92.50;;;12.18;61.70;101066.16;5192042;28;20049;-67
2022/05/29 00:28:22;;;;;;;0.82;0.63;;;12.00;92.80;;;12.17;61.44;101069.63;5191948;28;20100;-69
2022/05/29 00:30:55;;;;;;;2.78;1.00;;;12.00;93.00;;;12.18;61.71;101067.88;5191563;28;20038;-68
2022/05/29 00:33:27;;;;;;;1.88;0.82;;;12.00;93.40;;;12.16;62.16;101069.56;5191580;28;20053;-68
2022/05/29 00:35:59;;;;;;;1.55;0.80;;;12.00;93.70;;;12.14;61.99;101066.91;5192145;28;20046;-68
2022/05/29 00:38:38;;;;;;;2.42;0.55;;;12.00;93.80;;;12.10;62.61;101059.81;5191895;28;20045;-70
2022/05/29 00:41:18;;;;;;;1.83;0.77;;;11.90;94.20;;;12.06;62.88;101057.03;5191717;28;20554;-70
2022/05/29 00:44:12;;;;;;;3.05;1.05;;;11.90;94.60;;;12.00;63.67;101062.06;5192047;28;20053;-69
2022/05/29 00:46:49;;;;;;;1.45;0.82;;;11.90;95.20;;;11.93;64.17;101060.97;5192065;28;20111;-70
2022/05/29 00:49:25;;;;;;;1.83;0.90;;;11.80;95.80;;;11.86;64.77;101054.63;5191273;28;20550;-68
2022/05/29 00:52:01;;;;;;;1.58;0.85;;;11.70;96.60;;;11.80;65.57;101048.28;5191563;28;20042;-70
2022/05/29 00:54:42;;;;;;;2.35;0.90;;;11.70;97.30;;;11.76;65.70;101049.94;5191703;28;20064;-69
2022/05/29 00:57:18;;;;;;;1.42;0.93;;;11.60;97.60;;;11.68;66.03;101044.44;5191686;28;20060;-68
2022/05/29 00:59:50;;;;;;;2.15;0.90;;;11.60;98.20;;;11.61;66.34;101058.13;5190742;28;20054;-68
2022/05/29 01:02:24;;;;;;;2.95;1.05;;;11.50;98.50;;;11.54;66.59;101053.53;5191581;28;20505;-71
2022/05/29 01:04:57;;;;;;;1.20;1.00;;;11.40;98.70;;;11.51;67.16;101050.78;5191542;28;20397;-69
2022/05/29 01:07:30;;;;;;;1.58;1.10;;;11.40;99.30;;;11.47;67.60;101051.50;5191635;28;20478;-67
2022/05/29 01:10:04;;;;;;;1.85;1.00;;;11.30;99.80;;;11.42;67.82;101045.28;5191046;28;20046;-69
2022/05/29 01:12:47;;;;;;;1.00;0.82;;;11.30;99.90;;;11.38;68.27;101045.97;5188477;28;20053;-68
2022/05/29 01:15:31;;;;;;;1.85;0.90;;;11.30;99.90;;;11.32;68.70;101043.16;5188341;28;20629;-70
2022/05/29 01:18:26;;;;;;;2.88;1.05;;;11.20;99.90;;;11.26;69.13;101037.72;5188170;28;20050;-68
2022/05/29 01:21:16;;;;;;;1.63;0.93;;;11.20;99.90;;;11.18;69.47;101040.06;5188020;28;20054;-69
2022/05/29 01:24:19;;;;;;;2.25;1.20;;;11.10;99.90;;;11.12;69.72;101034.59;5188524;28;20053;-68
2022/05/29 01:27:28;;;;;;;1.90;1.13;;;11.10;99.90;;;11.06;70.21;101034.38;5188221;28;20050;-68
2022/05/29 01:30:07;;;;;;;2.35;1.15;;;11.00;99.90;;;11.02;70.39;101035.09;5187631;28;20053;-68
2022/05/29 01:32:45;;;;;;;1.20;0.90;;;10.90;99.90;;;10.98;70.08;101033.22;5188056;28;20419;-68
2022/05/29 01:35:25;;;;;;;3.28;0.93;;;10.90;99.90;;;10.93;70.93;101035.66;5188143;28;20143;-70
2022/05/29 01:38:05;;;;;;;2.92;1.10;;;10.90;99.90;;;10.90;71.16;101038.16;5187757;28;20046;-69
2022/05/29 01:40:41;;;;;;;1.98;1.02;;;10.80;99.90;;;10.85;71.58;101039.69;5188102;28;20058;-68
2022/05/29 01:43:23;;;;;;;2.33;0.90;;;10.80;99.90;;;10.79;72.02;101042.97;5187825;28;20479;-69
2022/05/29 01:46:05;;;;;;;2.03;1.05;;;10.70;99.90;;;10.73;72.03;101034.03;5187708;28;20060;-69
2022/05/29 01:48:47;;;;;;;1.92;1.10;;;10.70;99.90;;;10.67;72.11;101033.78;5187197;28;20060;-68
2022/05/29 01:51:22;;;;;;;2.10;1.23;;;10.60;99.90;;;10.66;72.46;101037.22;5187429;28;20053;-70
2022/05/29 01:54:02;;;;;;;4.15;1.10;;;10.60;99.90;;;10.65;72.67;101031.13;5187556;28;20344;-68
2022/05/29 01:56:39;;;;;;;3.70;1.10;;;10.60;99.90;;;10.68;72.93;101030.34;5187400;28;20057;-68
2022/05/29 01:59:14;;;;;;;3.05;1.15;;;10.60;99.90;;;10.69;73.13;101033.00;5187175;28;20486;-69
2022/05/29 02:01:55;;;;;;;2.47;1.25;;;10.60;99.90;;;10.69;73.51;101024.28;5187524;28;20050;-68
2022/05/29 02:04:29;;;;;;;2.85;1.30;;;10.60;99.90;;;10.70;73.77;101029.59;5187407;28;20056;-69
2022/05/29 02:10:06;;;;;;;4.20;1.60;;;10.60;99.90;;;10.72;74.33;101027.91;5186889;28;20426;-67
2022/05/29 02:12:46;;;;;;;2.95;1.02;;;10.60;99.90;;;10.73;74.59;101023.59;5186487;28;20050;-70
2022/05/29 02:15:38;;;;;;;3.13;1.35;;;10.60;99.90;;;10.78;74.58;101016.84;5186082;28;20054;-68
2022/05/29 02:18:18;;;;;;;1.75;0.95;;;10.70;99.90;;;10.81;74.85;101017.81;5185748;28;20077;-68
2022/05/29 02:20:53;;;;;;;2.40;0.93;;;10.70;99.90;;;10.84;74.79;101022.28;5186469;28;20153;-68
2022/05/29 02:23:33;;;;;;;2.00;1.20;;;10.70;99.90;;;10.84;74.63;101022.28;5185676;28;20072;-70
2022/05/29 02:26:09;;;;;;;2.83;1.13;;;10.70;99.90;;;10.80;74.71;101020.38;5185952;28;20475;-69
2022/05/29 02:28:47;;;;;;;1.88;0.93;;;10.70;99.90;;;10.77;75.25;101015.94;5185810;28;20057;-70
2022/05/29 02:31:35;;;;;;;2.92;0.90;;;10.70;99.90;;;10.77;75.50;101015.94;5185989;28;20056;-69
2022/05/29 02:34:18;;;;;;;1.02;1.00;;;10.70;99.90;;;10.81;75.52;101016.94;5185642;28;20046;-69
2022/05/29 02:36:57;;;;;;;3.72;1.27;;;10.70;99.90;;;10.86;75.82;101015.41;5185881;28;20418;-69
2022/05/29 02:39:44;;;;;;;1.90;1.20;;;10.70;99.90;;;10.91;76.14;101006.03;5185777;28;20054;-69
2022/05/29 02:42:26;;;;;;;1.80;1.02;;;10.80;99.90;;;10.97;76.10;101013.19;5185728;28;20045;-68
2022/05/29 02:45:10;;;;;;;1.83;1.00;;;10.90;99.90;;;11.01;75.80;100999.41;5185860;28;20054;-70
2022/05/29 02:47:59;;;;;;;3.28;1.20;;;10.90;99.90;;;11.06;75.77;101003.97;5185542;28;20071;-68
2022/05/29 02:50:40;;;;;;;2.90;1.02;;;10.90;99.90;;;11.07;75.55;101000.53;5185356;28;20053;-70
2022/05/29 02:53:14;;;;;;;2.42;1.00;;;11.00;99.90;;;11.07;75.59;100995.31;5185558;28;20581;-71
2022/05/29 02:55:47;;;;;;;2.25;1.00;;;11.00;99.90;;;11.06;75.72;100998.75;5185521;28;20384;-68
2022/05/29 02:58:23;;;;;;;1.35;1.23;;;11.00;99.90;;;11.03;75.83;101000.38;5185104;28;20057;-71
2022/05/29 03:01:11;;;;;;;3.35;1.13;;;10.90;99.90;;;10.99;76.22;100991.53;5185495;28;20052;-70
2022/05/29 03:04:01;;;;;;;2.00;1.10;;;10.90;99.90;;;10.96;76.56;100991.44;5185325;28;20056;-70
2022/05/29 03:06:47;;;;;;;2.70;1.20;;;10.90;99.90;;;10.94;76.45;100995.69;5185315;28;20057;-68
2022/05/29 03:09:39;;;;;;;2.63;1.20;;;10.90;99.90;;;10.94;76.62;100997.41;5185187;28;20415;-69
2022/05/29 03:12:27;;;;;;;2.17;1.17;;;10.80;99.90;;;10.94;76.45;100994.81;5147481;28;1085361;-71
2022/05/29 03:15:18;;;;;;;;;;;10.80;99.90;;;10.93;75.94;100988.69;5186677;28;20072;-68
2022/05/29 03:18:04;;;;;;;3.28;1.38;;;10.80;99.90;;;10.96;75.22;100996.66;5186093;28;20370;-68
2022/05/29 03:20:45;;;;;;;2.70;1.58;;;10.80;99.90;;;10.97;75.50;100990.59;5185837;28;20056;-68
2022/05/29 03:23:31;;;;;;;4.03;1.10;;;10.80;99.90;;;10.97;75.52;100985.38;5185951;28;20404;-69
2022/05/29 03:26:07;;;;;;;2.70;1.30;;;10.90;99.90;;;10.99;75.63;100991.53;5185530;28;20050;-69
2022/05/29 03:28:45;;;;;;;1.13;1.02;;;10.90;99.90;;;10.99;75.87;100991.53;5185826;28;20545;-70
2022/05/29 03:31:22;;;;;;;3.63;1.05;;;10.90;99.90;;;10.98;76.10;100994.97;5185970;28;20046;-70
2022/05/29 03:33:54;;;;;;;1.33;0.80;;;10.90;99.90;;;10.97;76.33;100998.44;5185464;28;20050;-70
2022/05/29 03:36:28;;;;;;;3.38;0.93;;;10.90;99.90;;;10.95;76.54;100994.84;5184930;28;20046;-71
2022/05/29 03:39:01;;;;;;;1.60;1.02;;;10.90;99.90;;;10.95;76.73;100992.25;5185380;28;20057;-70
2022/05/29 03:41:39;;;;;;;2.90;1.00;;;10.90;99.90;;;10.98;76.78;100999.31;5185493;28;20046;-69
2022/05/29 03:44:12;;;;;;;1.48;0.90;;;10.90;99.90;;;10.96;76.59;100999.25;5185767;28;20458;-70
2022/05/29 03:46:45;;;;;;;2.55;1.00;;;10.90;99.90;;;10.96;76.75;100988.84;5185536;28;20050;-70
2022/05/29 03:49:20;;;;;;;2.70;1.50;;;10.90;99.90;;;10.98;76.80;100989.75;5185504;28;20052;-69
2022/05/29 03:51:53;;;;;;;1.50;0.75;;;10.90;99.90;;;11.01;76.77;100987.25;5185774;28;20076;-70
2022/05/29 03:54:26;;;;;;;3.50;1.27;;;10.90;99.90;;;11.03;76.67;100987.34;5185291;28;20046;-70
2022/05/29 03:56:58;;;;;;;2.25;1.00;;;10.90;99.90;;;11.05;76.71;100981.31;5185462;28;20423;-69
2022/05/29 03:59:30;;;;;;;3.10;0.98;;;11.00;99.90;;;11.07;76.57;100976.16;5185088;28;20061;-69
2022/05/29 04:02:02;;;;;;;3.30;1.23;;;11.00;99.90;;;11.10;76.81;100971.06;5185336;28;20050;-70
2022/05/29 04:04:34;;;;;;;2.75;1.23;;;11.00;99.90;;;11.16;76.97;100984.31;5185388;28;20050;-69
2022/05/29 04:07:06;;;;;;;1.30;1.02;;;11.00;99.90;;;11.19;76.83;100971.38;5185574;28;20053;-71
2022/05/29 04:12:29;;;;;;;2.88;1.17;;;11.10;99.90;;;11.25;76.05;100968.97;5185085;28;20056;-70
2022/05/29 04:15:01;;;;;;;2.35;1.15;;;11.10;99.90;;;11.26;75.58;100964.66;5200867;22;20108;-86
2022/05/29 04:17:33;;;;;;;1.23;1.13;;;11.20;99.90;;;11.27;75.61;100961.19;5184143;28;20062;-87
2022/05/29 04:20:07;;;;;;;3.08;1.10;;;11.20;99.90;;;11.29;75.88;100959.53;5187949;28;20054;-88
2022/05/29 04:22:39;;;;;;;2.80;1.42;;;11.20;99.90;;;11.33;76.17;100956.19;5191098;28;20057;-87
2022/05/29 04:25:13;;;;;;;2.97;1.10;;;11.20;99.90;;;11.40;76.46;100963.38;5194752;28;20052;-86
2022/05/29 04:27:45;;;;;;;1.73;0.90;;;11.30;99.90;;;11.48;76.61;100948.91;5195793;28;20428;-88
2022/05/29 04:30:17;;;;;;;2.80;1.15;;;11.40;99.90;;;11.54;76.70;100950.81;5177563;28;20500;-86
2022/05/29 04:33:01;;;;;;;1.92;0.75;;;11.40;99.90;;;11.58;76.06;100948.34;5173431;28;20050;-86
2022/05/29 04:35:39;;;;;;;3.78;1.20;;;11.50;99.90;;;11.63;76.35;100949.41;5172567;28;20046;-86
2022/05/29 04:38:12;;;;;;;2.10;1.23;;;11.50;99.90;;;11.67;76.10;100951.28;5172520;28;20054;-85
2022/05/29 04:40:46;;;;;;;3.13;1.13;;;11.50;99.90;;;11.72;75.74;100953.13;5172059;28;20055;-87
2022/05/29 04:43:19;;;;;;;1.65;1.13;;;11.60;99.90;;;11.74;75.52;100951.47;5172375;28;20050;-87
2022/05/29 04:45:55;;;;;;;2.20;1.08;;;11.60;99.90;;;11.75;75.88;100951.53;5187701;28;20069;-87
2022/05/29 04:48:27;;;;;;;1.98;1.00;;;11.60;99.90;;;11.80;75.75;100954.25;5195233;28;20117;-87
2022/05/29 04:51:02;;;;;;;3.67;1.20;;;11.70;99.90;;;11.83;75.17;100954.41;5194490;28;20054;-88
2022/05/29 04:53:36;;;;;;;3.13;1.48;;;11.70;99.90;;;11.82;75.22;100957.88;5193782;28;20053;-87
2022/05/29 04:56:10;;;;;;;6.22;1.65;;;11.70;99.90;;;11.81;74.86;100950.88;5194252;28;20114;-87
2022/05/29 04:58:42;;;;;;;2.83;1.33;;;11.70;99.90;;;11.81;75.20;100949.16;5194060;28;20080;-87
2022/05/29 05:01:14;;;;;;;2.92;1.35;;;11.70;99.90;;;11.86;75.10;100951.88;5193969;28;20050;-87
2022/05/29 05:03:46;;;;;;;2.75;1.52;;;11.70;99.90;;;11.88;74.85;100948.50;5193597;28;20492;-86
2022/05/29 05:06:18;;;;;;;3.88;1.52;;;11.70;99.90;;;12.05;75.29;100941.19;5193603;28;20072;-88
2022/05/29 05:08:50;;;;;;;5.10;1.67;;;11.90;99.90;;;12.31;74.78;100941.09;5194209;28;20056;-86
2022/05/29 05:11:24;;;;;;;6.78;1.83;;;12.10;99.90;;;12.83;75.03;100943.50;5194618;28;20057;-86
2022/05/29 05:13:56;;;;;;;8.45;1.98;;;12.50;99.90;;;13.29;71.62;100948.25;5193537;28;20048;-86
2022/05/29 05:16:28;;;;;;;3.75;1.55;;;12.80;99.90;;;13.52;69.25;100940.13;5194389;28;20618;-86
2022/05/29 05:19:00;;;;;;;3.95;1.55;;;13.10;99.90;;;13.70;68.37;100945.81;5195333;28;20053;-86
2022/05/29 05:21:33;;;;;;;5.38;1.52;;;13.30;99.90;;;13.76;66.94;100935.50;5196713;28;20060;-86
2022/05/29 05:24:06;;;;;;;3.45;1.70;;;13.40;99.90;;;13.75;66.23;100943.28;5195976;28;20052;-86
2022/05/29 05:26:40;;;;;;;3.40;1.55;;;13.50;99.90;;;13.71;65.62;100939.72;5180566;28;20059;-85
2022/05/29 05:29:14;;;;;;;5.43;1.90;;;13.50;99.90;;;13.57;65.30;100946.38;5173997;28;20058;-88
2022/05/29 05:31:46;;;;;;;3.15;1.42;;;13.40;99.90;;;13.39;65.90;100941.53;5161016;28;20057;-86
2022/05/29 05:34:18;;;;;;;2.83;1.73;;;13.20;99.90;;;13.26;66.33;100937.72;5167969;28;20496;-86
2022/05/29 05:36:50;;;;;;;4.50;1.60;;;13.10;99.90;;;13.19;66.65;100934.88;5160795;28;20106;-88
2022/05/29 05:39:23;;;;;;;4.07;1.55;;;13.10;99.90;;;13.10;67.23;100935.50;5154837;28;20129;-87
2022/05/29 05:41:56;;;;;;;5.10;1.63;;;12.90;99.90;;;12.99;67.34;100931.72;5170438;28;20054;-86
2022/05/29 05:44:28;;;;;;;7.63;1.80;;;12.90;99.90;;;12.94;67.84;100933.31;5157411;28;20134;-86
2022/05/29 05:47:00;;;;;;;3.47;1.35;;;12.80;99.90;;;12.94;68.23;100922.88;5158251;28;20042;-86
2022/05/29 05:49:32;;;;;;;3.30;1.17;;;12.80;99.90;;;13.01;67.78;100930.03;5159972;28;20047;-87
2022/05/29 05:52:06;;;;;;;4.18;1.75;;;12.80;99.90;;;13.11;68.12;100931.19;5155047;28;20078;-86
2022/05/29 05:54:38;;;;;;;4.07;1.50;;;12.90;99.90;;;13.14;67.91;100924.28;5157731;28;20070;-88
2022/05/29 05:57:12;;;;;;;3.03;1.67;;;12.90;99.90;;;13.18;67.61;100928.75;5174986;28;20129;-87
2022/05/29 05:59:44;;;;;;;2.22;1.30;;;12.90;99.90;;;13.28;68.03;100922.06;5164240;28;20073;-80
2022/05/29 06:02:16;;;;;;;5.10;1.83;;;13.00;99.90;;;13.36;67.46;100922.25;5154444;28;20674;-79
2022/05/29 06:04:48;;;;;;;3.47;1.80;;;13.10;99.90;;;13.42;66.96;100930.25;5155968;28;20051;-78
2022/05/29 06:07:20;;;;;;;3.67;1.75;;;13.10;99.90;;;13.43;66.94;100926.78;5158239;28;20055;-80
2022/05/29 06:09:52;;;;;;;2.63;1.50;;;13.20;99.90;;;13.47;67.15;100926.91;5157517;28;20051;-78
2022/05/29 06:12:25;;;;;;;4.15;1.50;;;13.20;99.90;;;13.55;67.27;100925.34;5162716;28;20044;-80
2022/05/29 06:14:58;;;;;;;3.45;1.42;;;13.30;99.90;;;13.68;66.61;100923.94;5164922;28;20187;-82
2022/05/29 06:17:31;;;;;;;4.32;1.88;;;13.30;99.90;;;13.90;66.98;100927.06;5166180;28;20057;-87
2022/05/29 06:20:04;;;;;;;6.35;1.98;;;13.50;99.90;;;14.57;66.79;100923.34;5170706;28;20046;-85
2022/05/29 06:22:40;;;;;;;5.55;2.17;;;14.00;99.90;;;15.65;62.20;100921.88;5167651;28;20053;-86
2022/05/29 06:25:13;;;;;;;2.92;1.48;;;14.80;99.70;;;16.54;57.57;100914.38;5162248;28;20050;-85
2022/05/29 06:27:47;;;;;;;2.83;1.42;;;15.60;97.30;;;16.76;55.02;100925.19;5166922;28;20046;-85
2022/05/29 06:30:19;;;;;;;4.95;1.80;;;16.00;95.10;;;16.88;54.65;100919.16;5162508;28;20061;-85
2022/05/29 06:32:51;;;;;;;3.85;1.42;;;16.20;94.40;;;16.89;54.35;100920.94;5172131;28;20047;-84
2022/05/29 06:35:23;;;;;;;4.90;1.60;;;16.30;93.70;;;16.84;53.89;100920.91;5154851;28;20043;-84
2022/05/29 06:37:55;;;;;;;3.67;1.33;;;16.30;93.20;;;16.67;53.80;100919.78;5165060;28;20054;-85
2022/05/29 06:40:27;;;;;;;4.95;1.40;;;16.20;92.60;;;16.42;54.53;100922.09;5163693;28;20042;-84
2022/05/29 06:43:01;;;;;;;2.83;1.20;;;16.10;92.70;;;16.19;55.11;100921.81;5155320;28;20086;-84
2022/05/29 06:45:33;;;;;;;1.85;1.45;;;15.90;92.80;;;15.99;55.33;100928.53;5156783;28;20047;-86
2022/05/29 06:48:06;;;;;;;4.53;1.42;;;15.70;92.80;;;15.96;56.04;100921.47;5158220;28;20118;-86
2022/05/29 06:50:38;;;;;;;3.67;1.50;;;15.60;93.50;;;15.70;56.25;100921.06;5156406;28;20082;-85
2022/05/29 06:53:10;;;;;;;5.43;1.60;;;15.40;93.30;;;15.46;56.50;100921.53;5155509;28;20126;-84
2022/05/29 06:55:51;;;;;;;4.47;2.13;;;15.20;93.50;;;15.24;57.17;100913.25;5156107;28;20077;-84
2022/05/29 06:58:24;;;;;;;4.70;1.45;;;15.00;93.70;;;15.10;57.58;100918.25;5156862;28;20501;-86
2022/05/29 07:09:26;;;;;;;3.83;1.63;;;14.50;95.00;;;14.48;59.87;100920.53;5154493;28;20113;-84
2022/05/29 07:12:05;;;;;;;5.65;1.70;;;14.30;95.20;;;14.30;59.82;100914.00;5154357;28;20050;-85
2022/05/29 07:14:43;;;;;;;3.65;1.58;;;14.20;95.20;;;14.10;60.09;100913.56;5153154;28;20142;-84
2022/05/29 07:17:15;;;;;;;4.03;1.80;;;14.00;95.20;;;13.99;60.30;100916.78;5152841;28;20412;-83
2022/05/29 07:19:47;;;;;;;2.97;1.50;;;13.90;95.50;;;13.94;60.89;100919.31;5153270;28;20050;-84
2022/05/29 07:22:19;;;;;;;2.33;1.08;;;13.80;95.90;;;13.97;61.29;100915.88;5153803;28;20057;-83
2022/05/29 07:24:51;;;;;;;3.05;1.50;;;13.80;96.10;;;14.02;61.46;100922.13;5152830;28;20043;-84
2022/05/29 07:27:23;;;;;;;2.88;1.48;;;13.80;96.40;;;14.03;61.20;100916.03;5152111;28;20552;-85
2022/05/29 07:29:57;;;;;;;6.32;1.60;;;13.80;96.40;;;13.91;61.54;100919.25;5152684;28;20057;-84
2022/05/29 07:32:30;;;;;;;2.33;1.13;;;13.80;96.60;;;13.80;62.86;100918.97;5153124;28;20055;-86
2022/05/29 07:35:02;;;;;;;3.50;1.65;;;13.70;97.10;;;13.72;63.90;100917.91;5152373;28;20047;-84
2022/05/29 07:37:34;;;;;;;3.67;1.20;;;13.60;97.80;;;13.61;64.85;100918.50;5153257;28;20077;-85
2022/05/29 07:40:09;;;;;;;4.00;1.40;;;13.50;98.30;;;13.50;65.49;100916.53;5152080;28;20051;-86
2022/05/29 07:45:32;;;;;;;2.70;1.05;;;13.40;99.00;;;13.29;66.41;100918.59;5152856;28;20105;-87
2022/05/29 07:48:06;;;;;;;2.38;1.25;;;13.30;99.20;;;13.24;65.98;100917.59;5152659;28;20054;-86
2022/05/29 07:50:38;;;;;;;2.58;1.10;;;13.20;99.10;;;13.23;65.65;100916.69;5152905;28;20059;-85
2022/05/29 07:53:12;;;;;;;2.47;0.82;;;13.20;99.10;;;13.26;65.37;100919.41;5153341;28;20134;-86
2022/05/29 07:55:44;;;;;;;1.90;1.10;;;13.20;98.90;;;13.44;66.99;100923.34;5169134;28;20126;-80
2022/05/29 07:58:17;;;;;;;2.17;0.88;;;13.30;99.90;;;13.93;66.67;100921.91;5175760;28;20045;-80
2022/05/29 08:00:51;;;;;;;1.20;0.98;;;13.70;99.90;;;14.40;65.46;100921.19;5172103;28;20057;-82
2022/05/29 08:03:23;;;;;;;1.65;0.80;;;14.20;99.90;;;14.87;63.64;100913.47;5166293;28;20428;-82
2022/05/29 08:05:57;;;;;;;4.13;1.30;;;14.60;99.00;;;15.42;61.33;100914.44;5177370;28;20504;-80
2022/05/29 08:08:31;;;;;;;3.13;1.00;;;15.00;97.70;;;16.04;59.18;100920.69;5187688;28;20050;-82
2022/05/29 08:11:04;;;;;;;6.72;1.30;;;15.50;96.80;;;16.54;56.89;100922.25;5187644;28;20054;-81
2022/05/29 08:13:36;;;;;;;2.50;1.20;;;16.00;95.50;;;16.79;55.67;100905.03;5187931;28;20077;-83
2022/05/29 08:16:10;;;;;;;2.33;1.15;;;16.20;94.20;;;16.91;54.49;100909.56;5182229;28;20104;-82
2022/05/29 08:18:41;;;;;;;2.35;1.00;;;16.40;93.20;;;16.87;54.28;100905.13;5183023;28;20046;-80
2022/05/29 08:21:15;;;;;;;2.95;1.20;;;16.50;92.60;;;16.95;54.59;100910.47;5186968;28;20046;-81
2022/05/29 08:32:14;;;;;;;2.78;1.02;;;16.60;92.30;;;16.87;55.58;100906.88;5136037;28;20050;-85
2022/05/29 08:34:46;;;;;;;1.50;1.00;;;16.60;92.40;;;16.88;56.48;100914.78;5175345;28;20045;-84
2022/05/29 08:37:19;;;;;;;22.60;8.82;;;16.50;93.10;;;17.08;56.77;100912.34;5174375;28;20047;-84
2022/05/29 08:39:51;;;;;;;77.05;27.05;;;16.70;93.60;;;17.59;56.38;100911.94;5186982;28;20046;-86
2022/05/29 08:42:27;;;;;;;65.22;21.83;;;17.00;93.90;;;18.03;55.36;100914.06;5191898;28;20342;-85
2022/05/29 08:45:00;;;;;;;28.80;10.65;;;17.30;93.30;;;18.29;52.96;100910.69;5193563;28;20045;-84
2022/05/29 08:47:33;;;;;;;18.30;5.80;;;17.50;91.80;;;18.64;51.79;100895.88;5180200;28;20050;-84
2022/05/29 08:50:07;;;;;;;10.63;4.50;;;17.80;91.00;;;19.07;50.02;100903.06;5183810;28;20073;-86
2022/05/29 08:52:59;;;;;;;6.80;2.47;;;18.00;90.00;;;19.23;48.92;100900.47;5193338;28;20521;-85
2022/05/29 08:55:41;;;;;;;7.93;3.03;;;18.20;88.30;;;19.36;47.63;100892.53;5193355;28;20439;-84
2022/05/29 08:58:26;;;;;;;3.63;2.00;;;18.20;85.60;;;18.91;47.53;100902.19;5192217;28;20053;-84
2022/05/29 09:01:18;;;;;;;4.07;1.83;;;18.10;83.90;;;18.18;48.61;100903.59;5190784;28;20050;-84
2022/05/29 09:03:57;;;;;;;2.95;1.70;;;17.70;83.70;;;17.52;49.53;100904.88;5177884;28;20050;-84
2022/05/29 09:06:34;;;;;;;3.38;1.80;;;17.20;83.80;;;16.85;50.32;100898.97;5171046;28;20420;-85
2022/05/29 09:09:19;;;;;;;3.70;1.52;;;16.60;83.90;;;16.32;52.16;100896.56;5179750;28;20050;-83
2022/05/29 09:11:56;;;;;;;4.25;1.70;;;16.20;86.30;;;16.10;53.31;100895.34;5192663;28;20523;-85
2022/05/29 09:14:41;;;;;;;1.85;1.52;;;15.90;88.30;;;16.04;54.05;100897.94;5192373;28;20046;-84
2022/05/29 09:17:19;;;;;;;3.88;1.70;;;15.70;90.00;;;16.05;54.64;100896.19;5191360;28;20054;-85
2022/05/29 09:19:57;;;;;;;5.57;2.35;;;15.70;90.50;;;16.84;55.19;100894.56;5187894;28;20504;-82
2022/05/29 09:22:33;;;;;;;9.18;3.72;;;15.90;92.00;;;18.53;53.21;100886.19;5157609;28;20530;-80
2022/05/29 09:25:11;;;;;;;5.43;1.67;;;16.90;92.80;;;20.13;48.62;100888.94;5193846;28;20053;-84
2022/05/29 09:27:47;;;;;;;2.70;1.38;;;18.20;90.60;;;21.00;45.11;100882.41;5195040;28;20046;-83
2022/05/29 09:30:20;;;;;;;3.78;1.50;;;19.30;84.60;;;21.54;43.25;100885.56;5200785;28;20084;-84
2022/05/29 09:32:57;;;;;;;2.45;1.23;;;20.00;80.10;;;21.47;42.88;100882.06;5198480;28;20049;-84
2022/05/29 09:35:37;;;;;;;2.13;1.00;;;20.30;76.90;;;21.10;43.14;100881.44;5197736;28;20050;-83
2022/05/29 09:38:27;;;;;;;2.03;1.27;;;20.20;75.40;;;20.75;43.07;100877.25;5195909;28;20060;-83
2022/05/29 09:41:05;;;;;;;2.47;1.20;;;20.10;73.80;;;20.72;43.70;100871.06;5200824;28;20527;-82
2022/05/29 09:43:37;;;;;;;2.38;1.13;;;20.00;74.40;;;20.80;42.79;100867.53;5201143;28;20056;-85
2022/05/29 09:46:21;;;;;;;1.40;1.30;;;20.00;72.90;;;20.84;42.82;100856.00;5201147;28;20209;-84
2022/05/29 09:51:56;;;;;;;4.15;1.27;;;20.20;73.30;;;21.10;41.61;100852.28;5192449;28;20441;-80
2022/05/29 09:54:32;;;;;;;1.17;1.02;;;20.30;70.60;;;20.85;41.91;100859.53;5189693;28;20046;-82
2022/05/29 09:57:11;;;;;;;2.55;1.15;;;20.10;70.50;;;20.41;41.90;100860.63;5191193;28;20060;-85
2022/05/29 09:59:45;;;;;;;2.63;1.02;;;19.90;69.80;;;19.92;41.96;100854.63;5193456;28;20117;-83
2022/05/29 10:02:27;;;;;;;1.73;1.00;;;19.50;69.30;;;19.55;42.45;100864.31;5195401;28;20060;-86
2022/05/29 10:05:00;;;;;;;3.72;1.23;;;19.10;69.60;;;19.19;43.23;100861.69;5193956;28;20054;-85
2022/05/29 10:07:40;;;;;;;1.95;1.02;;;18.80;70.30;;;18.76;44.32;100850.19;5202820;28;20041;-85
2022/05/29 10:10:29;;;;;;;0.93;0.75;;;18.40;71.40;;;18.41;46.55;100850.94;5203580;28;20124;-86
2022/05/29 10:13:04;;;;;;;1.80;1.17;;;18.10;74.10;;;18.10;48.68;100857.84;5199382;28;20516;-84
2022/05/29 10:15:41;;;;;;;2.58;1.35;;;17.90;77.40;;;18.01;50.39;100857.78;5258430;22;20046;-63
2022/05/29 10:18:34;;;;;;;2.88;1.10;;;17.70;79.40;;;18.11;51.47;100859.59;5194545;28;20046;-62
2022/05/29 10:21:14;;;;;;;2.10;1.02;;;17.80;81.80;;;18.12;52.20;100850.78;5186172;28;20054;-62
2022/05/29 10:23:52;;;;;;;4.10;1.02;;;17.80;82.90;;;18.16;52.66;100847.31;5179374;28;20133;-63
2022/05/29 10:26:34;;;;;;;1.45;1.15;;;17.80;83.80;;;18.36;53.99;100841.22;5175678;28;20066;-65
2022/05/29 10:29:17;;;;;;;1.80;1.70;;;17.90;86.10;;;18.78;55.13;100844.91;5175185;28;20047;-64
2022/05/29 10:31:52;;;;;;;1.83;1.27;;;18.10;89.30;;;19.12;53.64;100844.09;5177892;28;20049;-66
2022/05/29 10:34:28;;;;;;;2.90;1.20;;;18.40;88.20;;;19.27;52.82;100842.31;5177834;28;20053;-62
2022/05/29 10:37:03;;;;;;;3.10;1.38;;;18.50;87.80;;;19.30;51.14;100837.03;5174839;28;20510;-63
2022/05/29 10:39:37;;;;;;;7.40;1.52;;;18.60;85.30;;;19.42;50.05;100834.38;5180553;28;20052;-65
2022/05/29 10:42:10;;;;;;;1.80;1.10;;;18.70;83.50;;;19.63;48.51;100831.75;5176145;28;20495;-65
2022/05/29 10:44:44;;;;;;;3.90;1.40;;;18.80;81.50;;;19.82;47.55;100829.06;5166469;28;20043;-62
2022/05/29 10:47:31;;;;;;;2.95;1.20;;;19.00;79.90;;;20.01;46.76;100822.81;5179120;28;20057;-61
2022/05/29 10:50:13;;;;;;;2.42;1.20;;;19.20;78.60;;;20.28;46.86;100825.38;5168443;28;20054;-62
2022/05/29 10:53:00;;;;;;;3.08;1.48;;;19.40;78.90;;;20.49;46.00;100820.91;5166377;28;20134;-62
2022/05/29 10:55:48;;;;;;;2.72;1.30;;;19.60;77.60;;;20.37;45.64;100815.63;5166483;28;20046;-64
2022/05/29 10:59:04;;;;;;;3.80;1.27;;;19.70;76.30;;;20.23;45.45;100818.34;5171291;28;20052;-71
2022/05/29 11:05:12;;;;;;;2.45;1.63;;;19.30;74.90;;;18.86;45.64;100814.13;5176488;28;20490;-70
2022/05/29 11:08:01;;;;;;;2.83;1.40;;;18.70;73.60;;;18.25;47.34;100811.28;5176282;28;20099;-71
2022/05/29 11:11:02;;;;;;;3.95;2.20;;;18.10;75.40;;;17.83;49.69;100818.13;5174920;28;20399;-71
2022/05/29 11:13:53;;;;;;;2.70;1.60;;;17.70;78.60;;;17.69;50.97;100817.13;5176508;28;20080;-70
2022/05/29 11:16:41;;;;;;;3.80;1.70;;;17.50;80.40;;;17.60;52.11;100813.59;5168046;28;20049;-70
2022/05/29 11:20:00;;;;;;;3.90;1.67;;;17.40;82.00;;;17.53;52.51;100811.75;5178815;28;20494;-54
2022/05/29 11:22:40;;;;;;;4.43;1.60;;;17.30;82.90;;;17.53;53.31;100816.13;5192217;28;20049;-54
2022/05/29 11:25:34;;;;;;;7.13;1.75;;;17.30;84.30;;;17.60;53.96;100812.66;5196089;28;20118;-55